Time;durP1;ratioP1;P1;durP2;ratioP2;P2;SDS_P1;SDS_P2;PMS_P1;PMS_P2;Temp;Humidity;BMP_temperature;BMP_pressure;BME280_temperature;BME280_humidity;BME280_pressure;Samples;Min_cycle;Max_cycle;Signal;HPM_P1;HPM_P2
2023/09/30 00:00:00;;;;;;;31.70;7.57;;;11.70;99.90;;;;;;5076592;28;20107;-71
2023/09/30 00:02:27;;;;;;;16.88;5.97;;;11.70;99.90;;;;;;5076849;28;20500;-70
2023/09/30 00:04:53;;;;;;;17.63;5.95;;;11.60;99.90;;;;;;5077051;28;20043;-70
2023/09/30 00:07:19;;;;;;;24.85;7.55;;;11.60;99.90;;;;;;5076734;28;20483;-70
2023/09/30 00:09:44;;;;;;;22.75;6.80;;;11.70;99.90;;;;;;5076813;28;20090;-70
2023/09/30 00:12:10;;;;;;;29.65;7.88;;;11.70;99.90;;;;;;5076670;28;20462;-70
2023/09/30 00:14:37;;;;;;;14.05;5.65;;;11.70;99.90;;;;;;5076182;28;20017;-70
2023/09/30 00:17:03;;;;;;;12.13;5.95;;;11.70;99.90;;;;;;5076525;28;20038;-70
2023/09/30 00:19:28;;;;;;;15.98;6.25;;;11.70;99.90;;;;;;5076768;28;20032;-71
2023/09/30 00:21:54;;;;;;;30.80;7.35;;;11.70;99.90;;;;;;5075795;28;20115;-70
2023/09/30 00:24:19;;;;;;;18.92;6.35;;;11.70;99.90;;;;;;5076771;28;20074;-71
2023/09/30 00:26:46;;;;;;;17.88;5.80;;;11.60;99.90;;;;;;5076248;28;20082;-71
2023/09/30 00:29:11;;;;;;;13.27;5.97;;;11.60;99.90;;;;;;5076747;28;20060;-70
2023/09/30 00:31:37;;;;;;;15.52;5.88;;;11.60;99.90;;;;;;5076066;28;20066;-70
2023/09/30 00:34:03;;;;;;;15.73;6.40;;;11.60;99.90;;;;;;5075300;28;20048;-68
2023/09/30 00:36:28;;;;;;;16.77;6.25;;;11.50;99.90;;;;;;5075304;28;20032;-68
2023/09/30 00:38:54;;;;;;;14.75;6.75;;;11.50;99.90;;;;;;5075877;28;20133;-68
2023/09/30 00:41:19;;;;;;;17.60;6.85;;;11.50;99.90;;;;;;5076496;28;20028;-68
2023/09/30 00:43:46;;;;;;;18.20;6.68;;;11.50;99.90;;;;;;5076198;28;20107;-68
2023/09/30 00:46:28;;;;;;;13.50;6.22;;;11.50;99.90;;;;;;5076128;28;20035;-68
2023/09/30 00:48:55;;;;;;;17.75;6.07;;;11.50;99.90;;;;;;5076477;28;20029;-68
2023/09/30 00:51:22;;;;;;;15.40;6.25;;;11.50;99.90;;;;;;5076242;28;20079;-68
2023/09/30 00:53:50;;;;;;;15.05;6.68;;;11.50;99.90;;;;;;5075955;28;20484;-68
2023/09/30 00:56:18;;;;;;;13.30;6.25;;;11.50;99.90;;;;;;5075077;28;20131;-68
2023/09/30 00:58:45;;;;;;;11.35;6.70;;;11.50;99.90;;;;;;5075761;28;20035;-69
2023/09/30 01:01:10;;;;;;;13.85;5.90;;;11.40;99.90;;;;;;5076165;28;20098;-68
2023/09/30 01:03:37;;;;;;;13.23;6.53;;;11.40;99.90;;;;;;5075722;28;20474;-68
2023/09/30 01:06:02;;;;;;;13.05;6.68;;;11.50;99.90;;;;;;5075794;28;20035;-69
2023/09/30 01:08:28;;;;;;;21.10;7.80;;;11.50;99.90;;;;;;5075486;28;20028;-68
2023/09/30 01:10:55;;;;;;;19.45;8.73;;;11.50;99.90;;;;;;5075817;28;20029;-68
2023/09/30 01:13:20;;;;;;;25.55;8.88;;;11.50;99.90;;;;;;5075864;28;20020;-69
2023/09/30 01:15:47;;;;;;;21.40;8.75;;;11.60;99.90;;;;;;5075121;28;20166;-68
2023/09/30 01:18:12;;;;;;;20.83;7.85;;;11.60;99.90;;;;;;5075771;28;20181;-68
2023/09/30 01:20:38;;;;;;;28.98;9.30;;;11.60;99.90;;;;;;5075690;28;20112;-69
2023/09/30 01:23:04;;;;;;;18.17;8.63;;;11.60;99.90;;;;;;5075303;28;20375;-68
2023/09/30 01:25:30;;;;;;;24.58;9.00;;;11.60;99.90;;;;;;5075363;28;20036;-68
2023/09/30 01:27:58;;;;;;;25.42;9.50;;;11.60;99.90;;;;;;5075268;28;20033;-68
2023/09/30 01:30:23;;;;;;;21.13;9.15;;;11.60;99.90;;;;;;5075206;28;20032;-68
2023/09/30 01:32:49;;;;;;;18.63;8.48;;;11.60;99.90;;;;;;5074632;28;20052;-68
2023/09/30 01:35:14;;;;;;;14.88;8.57;;;11.60;99.90;;;;;;5075217;28;20116;-68
2023/09/30 01:37:40;;;;;;;14.48;7.70;;;11.60;99.90;;;;;;5074947;28;20031;-68
2023/09/30 01:40:08;;;;;;;20.30;8.57;;;11.60;99.90;;;;;;5074622;28;20054;-67
2023/09/30 01:42:33;;;;;;;20.13;8.50;;;11.60;99.90;;;;;;5075041;28;20104;-67
2023/09/30 01:44:59;;;;;;;18.65;8.85;;;11.60;99.90;;;;;;5074993;28;20055;-67
2023/09/30 01:47:24;;;;;;;26.08;9.48;;;11.50;99.90;;;;;;5074722;28;20141;-68
2023/09/30 01:49:50;;;;;;;31.08;11.57;;;11.60;99.90;;;;;;5074799;28;20109;-67
2023/09/30 01:52:16;;;;;;;21.83;9.43;;;11.60;99.90;;;;;;5074453;28;20028;-67
2023/09/30 01:54:41;;;;;;;28.00;10.35;;;11.60;99.90;;;;;;5074140;28;20027;-68
2023/09/30 01:57:07;;;;;;;22.60;9.32;;;11.60;99.90;;;;;;5074650;28;20032;-68
2023/09/30 01:59:32;;;;;;;22.60;8.90;;;11.60;99.90;;;;;;5074463;28;20035;-67
2023/09/30 02:01:58;;;;;;;23.85;10.82;;;11.70;99.90;;;;;;5074352;28;20382;-67
2023/09/30 02:04:23;;;;;;;24.55;10.23;;;11.70;99.90;;;;;;5074251;28;20017;-67
2023/09/30 02:06:49;;;;;;;21.05;8.80;;;11.70;99.90;;;;;;5074259;28;20082;-67
2023/09/30 02:09:14;;;;;;;26.30;10.43;;;11.70;99.90;;;;;;5074114;28;20029;-67
2023/09/30 02:11:41;;;;;;;24.77;9.70;;;11.70;99.90;;;;;;5074690;28;20071;-67
2023/09/30 02:14:07;;;;;;;34.33;11.50;;;11.70;99.90;;;;;;5073659;28;20149;-67
2023/09/30 02:16:33;;;;;;;37.38;13.40;;;11.70;99.90;;;;;;5073936;28;20048;-69
2023/09/30 02:18:58;;;;;;;47.55;14.07;;;11.80;99.90;;;;;;5074669;28;20022;-69
2023/09/30 02:21:24;;;;;;;45.78;14.65;;;11.90;99.90;;;;;;5074483;28;20024;-69
2023/09/30 02:23:54;;;;;;;37.95;14.63;;;11.90;99.90;;;;;;5074469;28;20032;-68
2023/09/30 02:26:21;;;;;;;34.13;14.32;;;12.00;99.90;;;;;;5073889;28;20029;-67
2023/09/30 02:28:47;;;;;;;34.85;13.00;;;11.90;99.90;;;;;;5074172;28;20074;-67
2023/09/30 02:31:12;;;;;;;33.47;13.50;;;11.90;99.90;;;;;;5074136;28;20474;-67
2023/09/30 02:33:39;;;;;;;27.52;12.65;;;11.80;99.90;;;;;;5073202;28;20510;-68
2023/09/30 02:36:07;;;;;;;25.98;11.90;;;11.80;99.90;;;;;;5073931;28;20034;-67
2023/09/30 02:38:33;;;;;;;23.63;10.77;;;11.80;99.90;;;;;;5074326;28;20036;-68
2023/09/30 02:40:58;;;;;;;32.60;12.10;;;11.80;99.90;;;;;;5073425;28;20466;-67
2023/09/30 02:43:24;;;;;;;25.70;11.10;;;11.70;99.90;;;;;;5074319;28;20032;-70
2023/09/30 02:45:50;;;;;;;19.70;9.63;;;11.70;99.90;;;;;;5073661;28;20025;-67
2023/09/30 02:48:15;;;;;;;32.15;13.40;;;11.70;99.90;;;;;;5073944;28;20028;-67
2023/09/30 02:50:44;;;;;;;39.13;14.05;;;11.70;99.90;;;;;;5073435;28;20504;-67
2023/09/30 02:53:10;;;;;;;32.78;13.35;;;11.70;99.90;;;;;;5074177;28;20028;-70
2023/09/30 02:55:36;;;;;;;33.03;12.82;;;11.70;99.90;;;;;;5074063;28;20085;-70
2023/09/30 02:58:02;;;;;;;26.52;11.25;;;11.70;99.90;;;;;;5073465;28;20020;-69
2023/09/30 03:00:32;;;;;;;33.42;12.60;;;11.70;99.90;;;;;;5073767;28;20059;-69
2023/09/30 03:02:59;;;;;;;29.15;13.10;;;11.60;99.90;;;;;;5073853;28;20028;-69
2023/09/30 03:05:26;;;;;;;23.25;11.57;;;11.60;99.90;;;;;;5073665;28;20025;-70
2023/09/30 03:07:52;;;;;;;20.10;11.25;;;11.50;99.90;;;;;;5073780;28;20025;-70
2023/09/30 03:10:23;;;;;;;24.48;11.90;;;11.50;99.90;;;;;;5073659;28;20370;-70
2023/09/30 03:12:50;;;;;;;34.03;11.93;;;11.50;99.90;;;;;;5073492;28;20035;-69
2023/09/30 03:15:17;;;;;;;29.23;11.68;;;11.50;99.90;;;;;;5073550;28;20028;-69
2023/09/30 03:17:43;;;;;;;23.55;10.70;;;11.50;99.90;;;;;;5073540;28;20027;-69
2023/09/30 03:20:12;;;;;;;24.88;11.02;;;11.40;99.90;;;;;;5073921;28;20020;-69
2023/09/30 03:22:40;;;;;;;19.42;9.68;;;11.40;99.90;;;;;;5073645;28;20024;-69
2023/09/30 03:25:07;;;;;;;21.08;10.55;;;11.30;99.90;;;;;;5073653;28;20119;-69
2023/09/30 03:27:33;;;;;;;25.73;10.65;;;11.30;99.90;;;;;;5073842;28;20447;-69
2023/09/30 03:30:01;;;;;;;21.98;10.82;;;11.20;99.90;;;;;;5073515;28;20021;-69
2023/09/30 03:32:26;;;;;;;23.45;10.75;;;11.20;99.90;;;;;;5073265;28;20462;-69
2023/09/30 03:34:52;;;;;;;19.92;10.32;;;11.20;99.90;;;;;;5073748;28;20036;-70
2023/09/30 03:37:18;;;;;;;41.65;13.93;;;11.10;99.90;;;;;;5073720;28;20111;-69
2023/09/30 03:39:43;;;;;;;33.20;13.40;;;11.10;99.90;;;;;;5073703;28;20068;-70
2023/09/30 03:42:11;;;;;;;33.45;13.55;;;11.10;99.90;;;;;;5073345;28;20029;-69
2023/09/30 03:44:38;;;;;;;27.30;12.63;;;11.10;99.90;;;;;;5073767;28;20081;-69
2023/09/30 03:47:04;;;;;;;39.70;14.25;;;11.10;99.90;;;;;;5073726;28;20036;-69
2023/09/30 03:49:30;;;;;;;25.83;12.30;;;11.10;99.90;;;;;;5073485;28;20037;-69
2023/09/30 03:51:55;;;;;;;25.98;11.95;;;11.10;99.90;;;;;;5073691;28;20496;-69
2023/09/30 03:54:21;;;;;;;33.80;13.25;;;11.10;99.90;;;;;;5073587;28;20543;-70
2023/09/30 03:56:47;;;;;;;27.55;12.20;;;11.10;99.90;;;;;;5073039;28;20119;-69
2023/09/30 03:59:13;;;;;;;27.02;11.90;;;11.10;99.90;;;;;;5073585;28;20025;-70
2023/09/30 04:01:40;;;;;;;32.65;12.60;;;11.00;99.90;;;;;;5073323;28;20024;-69
2023/09/30 04:04:07;;;;;;;31.65;12.18;;;11.10;99.90;;;;;;5073295;28;20025;-69
2023/09/30 04:06:33;;;;;;;27.13;11.15;;;11.10;99.90;;;;;;5073461;28;20082;-69
2023/09/30 04:08:59;;;;;;;21.42;10.02;;;11.00;99.90;;;;;;5073453;28;20033;-69
2023/09/30 04:11:25;;;;;;;24.65;11.18;;;11.00;99.90;;;;;;5075411;28;20028;-70
2023/09/30 04:13:50;;;;;;;26.75;10.95;;;11.00;99.90;;;;;;5077056;28;20082;-69
2023/09/30 04:16:18;;;;;;;29.70;12.43;;;11.00;99.90;;;;;;5076741;28;20038;-69
2023/09/30 04:18:44;;;;;;;27.20;11.57;;;11.00;99.90;;;;;;5076210;28;20048;-69
2023/09/30 04:21:09;;;;;;;24.05;9.88;;;11.00;99.90;;;;;;5076609;28;20485;-69
2023/09/30 04:23:36;;;;;;;22.25;10.70;;;11.00;99.90;;;;;;5076832;28;20378;-69
2023/09/30 04:26:03;;;;;;;29.08;12.30;;;11.00;99.90;;;;;;5076614;28;20037;-69
2023/09/30 04:28:29;;;;;;;26.17;12.05;;;10.90;99.90;;;;;;5076647;28;20028;-69
2023/09/30 04:30:54;;;;;;;30.52;11.73;;;10.90;99.90;;;;;;5076303;28;20462;-69
2023/09/30 04:33:20;;;;;;;32.78;12.23;;;10.90;99.90;;;;;;5075928;28;20585;-69
2023/09/30 04:35:45;;;;;;;32.67;11.98;;;10.90;99.90;;;;;;5076561;28;20032;-69
2023/09/30 04:38:11;;;;;;;30.13;11.93;;;10.90;99.90;;;;;;5076229;28;20089;-69
2023/09/30 04:40:37;;;;;;;31.90;12.75;;;11.00;99.90;;;;;;5076190;28;20131;-69
2023/09/30 04:43:03;;;;;;;21.30;11.18;;;10.90;99.90;;;;;;5076500;28;20027;-69
2023/09/30 04:45:29;;;;;;;31.65;12.32;;;10.90;99.90;;;;;;5075878;28;20032;-69
2023/09/30 04:47:58;;;;;;;24.15;10.77;;;10.80;99.90;;;;;;5076348;28;20032;-69
2023/09/30 04:50:23;;;;;;;23.52;10.48;;;10.80;99.90;;;;;;5076613;28;20032;-69
2023/09/30 04:52:51;;;;;;;21.92;11.15;;;10.70;99.90;;;;;;5075678;28;20040;-69
2023/09/30 04:55:17;;;;;;;21.15;9.48;;;10.70;99.90;;;;;;5076232;28;20060;-69
2023/09/30 04:57:45;;;;;;;23.33;11.20;;;10.70;99.90;;;;;;5075882;28;20060;-70
2023/09/30 05:00:13;;;;;;;21.75;11.10;;;10.70;99.90;;;;;;5076075;28;20058;-69
2023/09/30 05:02:39;;;;;;;38.95;13.30;;;10.70;99.90;;;;;;5076173;28;20455;-70
2023/09/30 05:05:06;;;;;;;34.35;12.90;;;10.70;99.90;;;;;;5075350;28;20017;-69
2023/09/30 05:07:32;;;;;;;32.92;12.45;;;10.80;99.90;;;;;;5075891;28;20028;-69
2023/09/30 05:09:57;;;;;;;23.85;11.73;;;10.70;99.90;;;;;;5075794;28;20024;-69
2023/09/30 05:12:23;;;;;;;34.55;11.95;;;10.70;99.90;;;;;;5075567;28;20021;-69
2023/09/30 05:14:49;;;;;;;33.58;11.57;;;10.70;99.90;;;;;;5075517;28;20047;-69
2023/09/30 05:17:15;;;;;;;23.10;10.52;;;10.70;99.90;;;;;;5075016;28;20035;-69
2023/09/30 05:19:41;;;;;;;23.63;10.75;;;10.70;99.90;;;;;;5075233;28;20025;-69
2023/09/30 05:22:06;;;;;;;23.63;10.82;;;10.70;99.90;;;;;;5074821;28;20082;-69
2023/09/30 05:24:32;;;;;;;31.20;11.32;;;10.70;99.90;;;;;;5075517;28;20336;-69
2023/09/30 05:26:57;;;;;;;22.05;10.13;;;10.70;99.90;;;;;;5074955;28;20055;-69
2023/09/30 05:29:23;;;;;;;30.40;11.05;;;10.80;99.90;;;;;;5075302;28;20348;-69
2023/09/30 05:31:49;;;;;;;27.92;10.60;;;10.80;99.90;;;;;;5074967;28;20070;-70
2023/09/30 05:34:14;;;;;;;26.98;11.02;;;10.80;99.90;;;;;;5074297;28;20080;-69
2023/09/30 05:36:40;;;;;;;23.90;10.90;;;10.80;99.90;;;;;;5075202;28;20079;-70
2023/09/30 05:39:05;;;;;;;24.15;9.80;;;10.80;99.90;;;;;;5074914;28;20116;-70
2023/09/30 05:41:31;;;;;;;20.35;9.15;;;10.80;99.90;;;;;;5074660;28;20056;-69
2023/09/30 05:43:58;;;;;;;20.70;10.25;;;10.80;99.90;;;;;;5074767;28;20020;-69
2023/09/30 05:46:24;;;;;;;23.77;9.02;;;10.80;99.90;;;;;;5074701;28;20020;-69
2023/09/30 05:48:50;;;;;;;36.28;12.68;;;10.80;99.90;;;;;;5075222;28;20039;-67
2023/09/30 05:51:15;;;;;;;28.52;11.10;;;10.80;99.90;;;;;;5074728;28;20029;-69
2023/09/30 05:53:41;;;;;;;28.85;10.60;;;10.90;99.90;;;;;;5075082;28;20481;-68
2023/09/30 05:56:08;;;;;;;29.15;10.38;;;10.90;99.90;;;;;;5074830;28;20028;-70
2023/09/30 05:58:33;;;;;;;29.48;10.32;;;11.00;99.90;;;;;;5074301;28;20054;-68
2023/09/30 06:01:00;;;;;;;26.27;10.50;;;11.00;99.90;;;;;;5074715;28;20031;-68
2023/09/30 06:03:29;;;;;;;24.52;10.10;;;11.10;99.90;;;;;;5074996;28;20446;-68
2023/09/30 06:05:55;;;;;;;22.13;10.38;;;11.10;99.90;;;;;;5074421;28;20033;-69
2023/09/30 06:08:21;;;;;;;30.33;11.30;;;11.20;99.90;;;;;;5074772;28;20120;-69
2023/09/30 06:10:47;;;;;;;25.05;10.18;;;11.30;99.90;;;;;;5074037;28;20056;-68
2023/09/30 06:13:13;;;;;;;34.10;11.32;;;11.40;99.90;;;;;;5073574;28;20032;-68
2023/09/30 06:15:40;;;;;;;38.63;11.63;;;11.60;99.90;;;;;;5074548;28;20383;-68
2023/09/30 06:18:06;;;;;;;24.38;10.43;;;11.70;99.90;;;;;;5074493;28;20413;-68
2023/09/30 06:20:33;;;;;;;32.22;11.02;;;11.90;99.90;;;;;;5074344;28;20074;-68
2023/09/30 06:23:00;;;;;;;27.13;10.77;;;12.20;99.90;;;;;;5074425;28;20021;-68
2023/09/30 06:25:27;;;;;;;31.45;10.68;;;13.00;99.90;;;;;;5074244;28;20059;-69
2023/09/30 06:27:54;;;;;;;25.90;11.02;;;13.90;99.90;;;;;;5074514;28;20029;-69
2023/09/30 06:30:20;;;;;;;20.90;8.40;;;14.70;99.90;;;;;;5074043;28;20026;-70
2023/09/30 06:32:46;;;;;;;18.08;7.20;;;15.00;99.90;;;;;;5073373;28;20494;-69
2023/09/30 06:35:13;;;;;;;15.55;6.75;;;15.50;99.90;;;;;;5073467;28;20034;-70
2023/09/30 06:37:39;;;;;;;20.20;8.20;;;16.30;99.90;;;;;;5074151;28;20129;-70
2023/09/30 06:40:07;;;;;;;17.42;6.82;;;16.70;99.90;;;;;;5074212;28;20020;-70
2023/09/30 06:42:33;;;;;;;17.77;6.93;;;17.10;99.90;;;;;;5074371;28;20031;-70
2023/09/30 06:44:59;;;;;;;16.92;6.43;;;17.10;99.90;;;;;;5073696;28;20028;-70
2023/09/30 06:47:25;;;;;;;17.65;6.45;;;17.80;99.90;;;;;;5073924;28;20485;-70
2023/09/30 06:49:50;;;;;;;20.35;6.53;;;18.40;99.90;;;;;;5073969;28;20127;-70
2023/09/30 06:52:16;;;;;;;18.67;6.55;;;19.00;51.30;;;;;;5074263;28;20032;-70
2023/09/30 06:54:41;;;;;;;12.77;6.00;;;19.30;1.00;;;;;;5074151;28;20103;-70
2023/09/30 06:57:08;;;;;;;16.00;6.32;;;19.20;1.00;;;;;;5073552;28;20098;-70
2023/09/30 06:59:33;;;;;;;14.35;6.40;;;19.30;1.00;;;;;;5074081;28;20021;-70
2023/09/30 07:01:59;;;;;;;19.73;6.65;;;19.40;1.00;;;;;;5073932;28;20047;-70
2023/09/30 07:04:26;;;;;;;15.55;6.20;;;19.90;99.90;;;;;;5073810;28;20482;-70
2023/09/30 07:06:52;;;;;;;17.90;6.28;;;19.80;99.90;;;;;;5073693;28;20032;-70
2023/09/30 07:09:19;;;;;;;20.95;6.60;;;19.40;99.90;;;;;;5073721;28;20028;-71
2023/09/30 07:11:45;;;;;;;21.17;7.35;;;19.30;99.90;;;;;;5073811;28;20028;-70
2023/09/30 07:14:11;;;;;;;17.65;7.03;;;18.70;99.90;;;;;;5073914;28;20035;-70
2023/09/30 07:16:36;;;;;;;20.85;7.63;;;18.50;99.90;;;;;;5073540;28;20025;-70
2023/09/30 07:19:02;;;;;;;17.83;7.15;;;18.20;1.00;;;;;;5073657;28;20053;-70
2023/09/30 07:21:28;;;;;;;24.55;7.80;;;18.40;1.00;;;;;;5073918;28;20410;-70
2023/09/30 07:23:54;;;;;;;26.65;7.47;;;18.00;1.00;;;;;;5073964;28;20029;-70
2023/09/30 07:26:24;;;;;;;24.45;8.00;;;18.40;1.00;;;;;;5073528;28;20024;-70
2023/09/30 07:28:50;;;;;;;21.80;7.78;;;18.50;1.00;;;;;;5073444;28;20032;-70
2023/09/30 07:31:15;;;;;;;19.00;6.95;;;18.40;99.90;;;;;;5073864;28;20386;-70
2023/09/30 07:33:41;;;;;;;18.50;7.03;;;18.40;99.90;;;;;;5072958;28;20048;-70
2023/09/30 07:36:07;;;;;;;26.75;7.95;;;18.10;1.00;;;;;;5073569;28;20032;-70
2023/09/30 07:38:32;;;;;;;20.13;7.43;;;18.20;1.00;;;;;;5073035;28;20028;-70
2023/09/30 07:41:00;;;;;;;15.82;6.70;;;18.60;99.90;;;;;;5073468;28;20024;-70
2023/09/30 07:43:28;;;;;;;20.00;7.03;;;18.60;1.00;;;;;;5073685;28;20060;-71
2023/09/30 07:45:53;;;;;;;19.15;6.68;;;18.80;99.90;;;;;;5076503;28;20081;-71
2023/09/30 07:48:19;;;;;;;16.63;7.13;;;18.80;99.90;;;;;;5076990;28;20443;-70
2023/09/30 07:50:45;;;;;;;19.45;6.85;;;19.30;99.90;;;;;;5077197;28;20107;-71
2023/09/30 07:53:12;;;;;;;21.75;6.90;;;19.50;1.00;;;;;;5077165;28;20040;-70
2023/09/30 07:55:37;;;;;;;22.77;7.30;;;19.40;99.90;;;;;;5077231;28;20037;-71
2023/09/30 07:58:03;;;;;;;19.88;7.32;;;19.70;99.90;;;;;;5076336;28;20029;-71
2023/09/30 08:00:29;;;;;;;20.35;7.00;;;19.40;99.90;;;;;;5077057;28;20060;-70
2023/09/30 08:02:54;;;;;;;19.25;7.25;;;19.20;99.90;;;;;;5077006;28;20111;-70
2023/09/30 08:05:20;;;;;;;19.15;6.95;;;19.40;87.30;;;;;;5077256;28;20493;-70
2023/09/30 08:07:46;;;;;;;15.65;7.10;;;18.80;99.90;;;;;;5075908;28;20036;-71
2023/09/30 08:10:16;;;;;;;19.17;7.18;;;19.10;99.90;;;;;;5076816;28;20063;-70
2023/09/30 08:12:45;;;;;;;20.10;6.63;;;19.50;99.90;;;;;;5076580;28;20032;-71
2023/09/30 08:15:11;;;;;;;15.95;6.30;;;19.60;6.50;;;;;;5076844;28;20036;-71
2023/09/30 08:17:37;;;;;;;20.67;7.07;;;19.90;9.00;;;;;;5076960;28;20027;-71
2023/09/30 08:20:04;;;;;;;19.58;6.85;;;19.30;99.90;;;;;;5076812;28;20025;-70
2023/09/30 08:22:30;;;;;;;20.13;6.50;;;18.90;99.90;;;;;;5076653;28;20411;-71
2023/09/30 08:24:56;;;;;;;20.67;6.60;;;18.60;99.90;;;;;;5076567;28;20220;-70
2023/09/30 08:27:24;;;;;;;19.38;6.80;;;18.40;1.00;;;;;;5076595;28;20111;-70
2023/09/30 08:29:49;;;;;;;17.10;6.47;;;19.10;99.90;;;;;;5076356;28;20035;-70
2023/09/30 08:32:15;;;;;;;21.02;6.95;;;19.10;99.90;;;;;;5076542;28;20379;-70
2023/09/30 08:34:40;;;;;;;17.17;6.13;;;19.20;73.40;;;;;;5075553;28;20130;-70
2023/09/30 08:37:06;;;;;;;16.20;5.82;;;19.30;99.90;;;;;;5076312;28;20036;-71
2023/09/30 08:39:31;;;;;;;16.77;5.82;;;19.10;99.90;;;;;;5076367;28;20421;-71
2023/09/30 08:41:58;;;;;;;12.77;6.00;;;19.40;99.90;;;;;;5076461;28;20021;-71
2023/09/30 08:44:23;;;;;;;18.40;6.00;;;19.00;99.90;;;;;;5076451;28;20020;-70
2023/09/30 08:46:50;;;;;;;19.25;5.80;;;19.10;99.90;;;;;;5076532;28;20032;-70
2023/09/30 08:49:24;;;;;;;13.23;5.30;;;19.10;99.90;;;;;;5075955;28;20466;-70
2023/09/30 08:51:50;;;;;;;19.83;5.93;;;19.80;99.90;;;;;;5075947;28;20028;-70
2023/09/30 08:54:16;;;;;;;16.65;6.22;;;20.00;99.90;;;;;;5076205;28;20374;-71
2023/09/30 08:56:47;;;;;;;17.90;6.32;;;20.20;99.90;;;;;;5074820;28;20030;-71
2023/09/30 08:59:14;;;;;;;14.20;5.70;;;19.70;99.90;;;;;;5075570;28;20020;-70
2023/09/30 09:01:40;;;;;;;14.93;6.05;;;19.30;99.90;;;;;;5075917;28;20081;-70
2023/09/30 09:04:07;;;;;;;17.58;6.40;;;19.40;99.90;;;;;;5075799;28;20462;-70
2023/09/30 09:06:32;;;;;;;16.77;5.50;;;19.60;99.90;;;;;;5075701;28;20028;-70
2023/09/30 09:09:17;;;;;;;17.42;6.15;;;19.80;1.00;;;;;;5075757;28;20500;-70
2023/09/30 09:11:43;;;;;;;17.90;5.15;;;20.10;99.90;;;;;;5074750;28;20085;-70
2023/09/30 09:14:09;;;;;;;15.90;5.95;;;20.20;99.90;;;;;;5075861;28;20109;-71
2023/09/30 09:16:35;;;;;;;13.20;5.15;;;20.00;99.90;;;;;;5075358;28;20086;-71
2023/09/30 09:19:14;;;;;;;17.63;5.47;;;20.50;1.00;;;;;;5075764;28;20021;-70
2023/09/30 09:21:54;;;;;;;16.48;4.88;;;20.10;1.00;;;;;;5075170;28;20373;-70
2023/09/30 09:24:28;;;;;;;15.88;5.25;;;20.30;18.80;;;;;;5075398;28;20102;-71
2023/09/30 09:27:05;;;;;;;15.35;5.68;;;20.70;44.00;;;;;;5074849;28;20024;-70
2023/09/30 09:29:30;;;;;;;15.40;5.30;;;20.80;1.00;;;;;;5075121;28;20036;-70
2023/09/30 09:32:07;;;;;;;12.80;4.90;;;20.90;99.90;;;;;;5074992;28;20086;-70
2023/09/30 09:34:33;;;;;;;11.02;4.70;;;21.40;99.90;;;;;;5074377;28;20048;-71
2023/09/30 09:36:59;;;;;;;13.15;4.25;;;21.20;25.90;;;;;;5074715;28;20390;-70
2023/09/30 09:39:31;;;;;;;14.60;4.40;;;21.40;99.90;;;;;;5074743;28;20111;-70
2023/09/30 09:41:57;;;;;;;14.90;5.18;;;21.50;1.00;;;;;;5074837;28;20028;-70
2023/09/30 09:44:25;;;;;;;11.68;4.22;;;21.10;1.00;;;;;;5074708;28;20432;-70
2023/09/30 09:46:51;;;;;;;11.40;4.22;;;20.20;99.90;;;;;;5074887;28;20068;-70
2023/09/30 09:49:17;;;;;;;11.57;4.10;;;19.90;58.00;;;;;;5074748;28;20072;-70
2023/09/30 09:51:45;;;;;;;11.30;4.38;;;19.00;99.90;;;;;;5074234;28;20025;-70
2023/09/30 09:54:11;;;;;;;17.10;4.55;;;18.40;99.90;;;;;;5074684;28;20029;-70
2023/09/30 09:56:38;;;;;;;10.93;4.22;;;18.30;99.90;;;;;;5074267;28;20024;-70
2023/09/30 09:59:04;;;;;;;9.13;3.78;;;18.50;99.90;;;;;;5074534;28;20081;-70
2023/09/30 10:01:30;;;;;;;11.93;4.20;;;18.60;99.90;;;;;;5074468;28;20040;-70
2023/09/30 10:03:56;;;;;;;10.75;3.83;;;18.50;99.90;;;;;;5074527;28;20077;-70
2023/09/30 10:06:23;;;;;;;11.43;3.83;;;18.50;99.90;;;;;;5074215;28;20066;-70
2023/09/30 10:08:51;;;;;;;11.55;4.40;;;18.60;99.90;;;;;;5074300;28;20111;-70
2023/09/30 10:11:18;;;;;;;14.57;4.25;;;19.40;1.00;;;;;;5074302;28;20029;-70
2023/09/30 10:13:56;;;;;;;9.77;4.15;;;19.40;99.90;;;;;;5073714;28;20060;-70
2023/09/30 10:22:21;;;;;;;10.77;3.80;;;19.20;1.00;;;;;;5111392;27;20376;-69
2023/09/30 10:24:49;;;;;;;8.80;4.05;;;18.90;99.90;;;;;;5111616;28;20530;-70
2023/09/30 10:41:11;;;;;;;9.40;3.53;;;20.80;99.90;;;;;;5111920;27;20416;-69
2023/09/30 10:43:39;;;;;;;8.98;3.38;;;20.50;99.90;;;;;;5112022;28;20031;-70
2023/09/30 10:52:01;;;;;;;7.93;3.30;;;22.30;1.00;;;;;;5112037;27;20283;-69
2023/09/30 10:54:29;;;;;;;9.63;3.30;;;22.80;1.00;;;;;;5112121;28;20038;-69
2023/09/30 10:56:55;;;;;;;7.47;3.10;;;23.00;23.80;;;;;;5111436;28;20052;-69
2023/09/30 10:59:23;;;;;;;8.52;3.40;;;22.40;97.00;;;;;;5111715;28;20093;-69
2023/09/30 11:01:50;;;;;;;7.82;3.40;;;21.60;21.60;;;;;;5111701;28;20032;-69
2023/09/30 11:04:16;;;;;;;9.30;3.75;;;21.50;99.90;;;;;;5111507;28;20430;-69
2023/09/30 11:06:42;;;;;;;9.82;3.58;;;22.20;99.90;;;;;;5111185;28;20077;-70
2023/09/30 11:09:12;;;;;;;10.40;3.97;;;22.00;1.00;;;;;;5110801;28;20031;-69
2023/09/30 11:11:43;;;;;;;9.07;4.05;;;21.10;99.90;;;;;;5111314;28;20127;-69
2023/09/30 11:14:30;;;;;;;10.43;3.50;;;20.50;99.90;;;;;;5111524;28;20018;-71
2023/09/30 11:17:00;;;;;;;9.68;3.17;;;19.80;1.00;;;;;;5119645;28;20107;-69
2023/09/30 11:19:27;;;;;;;8.77;3.58;;;19.60;1.00;;;;;;5120244;28;20469;-69
2023/09/30 11:21:55;;;;;;;11.90;3.22;;;19.30;99.90;;;;;;5117286;28;20031;-70
2023/09/30 11:24:21;;;;;;;9.85;2.88;;;19.60;1.00;;;;;;5112069;28;20032;-69
2023/09/30 11:26:52;;;;;;;10.48;3.85;;;19.90;1.00;;;;;;5111505;28;20531;-69
2023/09/30 11:29:17;;;;;;;9.57;3.28;;;19.90;21.30;;;;;;5110979;28;20077;-69
2023/09/30 11:31:46;;;;;;;11.88;3.60;;;19.40;99.90;;;;;;5110766;28;20028;-69
2023/09/30 11:34:12;;;;;;;7.93;3.75;;;19.60;99.90;;;;;;5111302;28;20437;-69
2023/09/30 11:36:42;;;;;;;10.45;3.95;;;19.60;1.00;;;;;;5110589;28;20379;-69
2023/09/30 11:39:09;;;;;;;13.85;3.60;;;19.90;99.90;;;;;;5111169;28;20084;-69
2023/09/30 11:41:38;;;;;;;10.55;3.38;;;19.90;99.90;;;;;;5110389;28;20421;-69
2023/09/30 11:44:07;;;;;;;13.45;3.85;;;20.10;99.90;;;;;;5110559;28;20441;-69
2023/09/30 11:46:52;;;;;;;7.65;3.30;;;20.10;99.90;;;;;;5111185;28;20474;-69
2023/09/30 11:49:35;;;;;;;9.07;3.50;;;20.40;99.90;;;;;;5110959;28;20374;-68
2023/09/30 11:52:03;;;;;;;7.95;3.25;;;20.20;1.00;;;;;;5111076;28;20036;-68
2023/09/30 11:54:31;;;;;;;9.50;3.72;;;20.00;99.90;;;;;;5110611;28;20024;-68
2023/09/30 11:56:58;;;;;;;10.98;3.70;;;19.90;1.00;;;;;;5110607;28;20376;-69
2023/09/30 11:59:24;;;;;;;10.13;3.80;;;20.30;99.90;;;;;;5110837;28;20052;-69
2023/09/30 12:01:51;;;;;;;9.68;3.47;;;20.90;99.90;;;;;;5105502;28;20527;-69
2023/09/30 12:04:18;;;;;;;9.30;3.58;;;21.20;99.90;;;;;;5096257;28;20028;-71
2023/09/30 12:06:46;;;;;;;6.50;3.20;;;21.10;99.90;;;;;;5096844;28;20031;-69
2023/09/30 12:09:14;;;;;;;9.50;3.20;;;21.20;1.00;;;;;;5096689;28;20481;-68
2023/09/30 12:11:43;;;;;;;7.78;3.40;;;20.40;90.70;;;;;;5096833;28;20482;-68
2023/09/30 12:14:11;;;;;;;10.95;3.85;;;20.50;99.90;;;;;;5095951;28;20031;-68
2023/09/30 12:16:37;;;;;;;9.75;3.78;;;20.80;99.90;;;;;;5096496;28;20393;-68
2023/09/30 12:19:02;;;;;;;11.68;3.42;;;20.60;1.00;;;;;;5096245;28;20023;-68
2023/09/30 12:21:28;;;;;;;13.38;3.67;;;20.60;99.90;;;;;;5096551;28;20024;-68
2023/09/30 12:23:54;;;;;;;9.35;3.38;;;20.20;1.00;;;;;;5096670;28;20032;-68
2023/09/30 12:26:20;;;;;;;7.65;3.28;;;19.90;99.90;;;;;;5096706;28;20074;-69
2023/09/30 12:28:46;;;;;;;9.15;3.08;;;19.60;99.90;;;;;;5096529;28;20431;-68
2023/09/30 12:31:13;;;;;;;6.38;3.03;;;19.80;99.90;;;;;;5096308;28;20035;-68
2023/09/30 12:33:39;;;;;;;9.40;3.00;;;20.30;1.00;;;;;;5096629;28;20039;-68
2023/09/30 12:36:05;;;;;;;7.28;2.83;;;20.30;1.00;;;;;;5096547;28;20032;-69
2023/09/30 12:38:30;;;;;;;10.07;3.75;;;20.70;1.00;;;;;;5096561;28;20031;-69
2023/09/30 12:40:56;;;;;;;11.23;3.83;;;21.00;99.90;;;;;;5095532;28;20121;-69
2023/09/30 12:43:22;;;;;;;8.00;3.60;;;20.70;99.90;;;;;;5096218;28;20161;-69
2023/09/30 12:45:47;;;;;;;9.60;3.78;;;21.00;99.90;;;;;;5096049;28;20031;-69
2023/09/30 12:48:14;;;;;;;9.27;3.55;;;20.90;1.00;;;;;;5095886;28;20028;-69
2023/09/30 12:50:41;;;;;;;11.35;3.03;;;21.00;99.90;;;;;;5095510;28;20561;-69
2023/09/30 12:53:06;;;;;;;7.60;3.13;;;21.00;99.90;;;;;;5095909;28;20473;-69
2023/09/30 12:55:32;;;;;;;10.25;3.92;;;21.10;99.90;;;;;;5096185;28;20024;-70
2023/09/30 12:57:59;;;;;;;9.88;3.40;;;21.00;1.00;;;;;;5096229;28;20024;-69